sensor_id;sensor_type;location;lat;lon;timestamp;P1;durP1;ratioP1;P2;durP2;ratioP2
60873;SDS011;46715;40.642;-7.920;2022-12-05T00:00:14;6.13;;;4.50;;
60873;SDS011;46715;40.642;-7.920;2022-12-05T00:02:15;6.10;;;4.18;;
60873;SDS011;46715;40.642;-7.920;2022-12-05T00:04:16;7.43;;;4.97;;
60873;SDS011;46715;40.642;-7.920;2022-12-05T00:06:17;7.37;;;4.07;;
60873;SDS011;46715;40.642;-7.920;2022-12-05T00:08:19;6.00;;;4.85;;
60873;SDS011;46715;40.642;-7.920;2022-12-05T00:10:19;6.07;;;4.17;;
60873;SDS011;46715;40.642;-7.920;2022-12-05T00:12:20;5.85;;;4.30;;
60873;SDS011;46715;40.642;-7.920;2022-12-05T00:14:21;6.00;;;4.43;;
60873;SDS011;46715;40.642;-7.920;2022-12-05T00:18:24;6.68;;;4.28;;
60873;SDS011;46715;40.642;-7.920;2022-12-05T00:20:26;6.43;;;3.92;;
60873;SDS011;46715;40.642;-7.920;2022-12-05T00:22:27;5.33;;;4.13;;
60873;SDS011;46715;40.642;-7.920;2022-12-05T00:24:28;5.50;;;4.40;;
60873;SDS011;46715;40.642;-7.920;2022-12-05T00:26:29;6.80;;;4.03;;
60873;SDS011;46715;40.642;-7.920;2022-12-05T00:28:31;6.60;;;4.10;;
60873;SDS011;46715;40.642;-7.920;2022-12-05T00:30:32;6.40;;;4.10;;
60873;SDS011;46715;40.642;-7.920;2022-12-05T00:32:34;6.90;;;4.35;;
60873;SDS011;46715;40.642;-7.920;2022-12-05T00:34:35;6.70;;;4.37;;
60873;SDS011;46715;40.642;-7.920;2022-12-05T00:36:36;6.00;;;3.92;;
60873;SDS011;46715;40.642;-7.920;2022-12-05T00:38:37;6.50;;;4.20;;
60873;SDS011;46715;40.642;-7.920;2022-12-05T00:40:38;6.88;;;4.43;;
60873;SDS011;46715;40.642;-7.920;2022-12-05T00:42:39;7.37;;;5.37;;
60873;SDS011;46715;40.642;-7.920;2022-12-05T00:44:40;8.83;;;5.13;;
60873;SDS011;46715;40.642;-7.920;2022-12-05T00:46:41;8.80;;;5.87;;
60873;SDS011;46715;40.642;-7.920;2022-12-05T00:48:42;7.10;;;5.40;;
60873;SDS011;46715;40.642;-7.920;2022-12-05T00:50:43;9.02;;;5.20;;
60873;SDS011;46715;40.642;-7.920;2022-12-05T00:52:44;9.10;;;5.73;;
60873;SDS011;46715;40.642;-7.920;2022-12-05T00:54:45;8.67;;;5.77;;
60873;SDS011;46715;40.642;-7.920;2022-12-05T00:56:45;5.47;;;4.37;;
60873;SDS011;46715;40.642;-7.920;2022-12-05T00:58:47;8.93;;;4.50;;
60873;SDS011;46715;40.642;-7.920;2022-12-05T01:00:49;5.93;;;4.05;;
60873;SDS011;46715;40.642;-7.920;2022-12-05T01:02:49;5.20;;;3.90;;
60873;SDS011;46715;40.642;-7.920;2022-12-05T01:04:51;5.60;;;4.35;;
60873;SDS011;46715;40.642;-7.920;2022-12-05T01:06:55;5.33;;;4.20;;
60873;SDS011;46715;40.642;-7.920;2022-12-05T01:08:57;5.78;;;3.75;;
60873;SDS011;46715;40.642;-7.920;2022-12-05T01:10:58;5.43;;;3.73;;
60873;SDS011;46715;40.642;-7.920;2022-12-05T01:12:59;5.53;;;4.33;;
60873;SDS011;46715;40.642;-7.920;2022-12-05T01:17:02;6.05;;;4.10;;
60873;SDS011;46715;40.642;-7.920;2022-12-05T01:19:04;6.07;;;3.53;;
60873;SDS011;46715;40.642;-7.920;2022-12-05T01:21:07;4.82;;;3.25;;
60873;SDS011;46715;40.642;-7.920;2022-12-05T01:23:08;3.87;;;3.30;;
60873;SDS011;46715;40.642;-7.920;2022-12-05T01:25:10;4.68;;;3.40;;
60873;SDS011;46715;40.642;-7.920;2022-12-05T01:27:11;5.20;;;3.17;;
60873;SDS011;46715;40.642;-7.920;2022-12-05T01:29:12;8.80;;;3.60;;
60873;SDS011;46715;40.642;-7.920;2022-12-05T01:31:20;6.60;;;3.33;;
60873;SDS011;46715;40.642;-7.920;2022-12-05T01:33:23;4.30;;;3.70;;
60873;SDS011;46715;40.642;-7.920;2022-12-05T01:35:24;5.90;;;3.67;;
60873;SDS011;46715;40.642;-7.920;2022-12-05T01:37:25;4.82;;;3.17;;
60873;SDS011;46715;40.642;-7.920;2022-12-05T01:39:25;6.30;;;3.70;;
60873;SDS011;46715;40.642;-7.920;2022-12-05T01:41:28;5.17;;;3.67;;
60873;SDS011;46715;40.642;-7.920;2022-12-05T01:43:30;6.50;;;3.38;;
60873;SDS011;46715;40.642;-7.920;2022-12-05T01:45:33;6.83;;;3.77;;
60873;SDS011;46715;40.642;-7.920;2022-12-05T01:47:34;5.35;;;3.15;;
60873;SDS011;46715;40.642;-7.920;2022-12-05T01:49:38;3.65;;;2.97;;
60873;SDS011;46715;40.642;-7.920;2022-12-05T01:51:44;4.30;;;2.92;;
60873;SDS011;46715;40.642;-7.920;2022-12-05T01:53:48;4.05;;;2.72;;
60873;SDS011;46715;40.642;-7.920;2022-12-05T01:55:49;6.13;;;3.20;;
60873;SDS011;46715;40.642;-7.920;2022-12-05T01:59:52;3.33;;;2.50;;
60873;SDS011;46715;40.642;-7.920;2022-12-05T02:01:58;4.55;;;2.88;;
60873;SDS011;46715;40.642;-7.920;2022-12-05T02:03:59;4.32;;;2.83;;
60873;SDS011;46715;40.642;-7.920;2022-12-05T02:06:00;5.10;;;2.77;;
60873;SDS011;46715;40.642;-7.920;2022-12-05T02:08:10;3.88;;;2.67;;
60873;SDS011;46715;40.642;-7.920;2022-12-05T02:10:11;4.30;;;2.53;;
60873;SDS011;46715;40.642;-7.920;2022-12-05T02:12:12;4.80;;;2.50;;
60873;SDS011;46715;40.642;-7.920;2022-12-05T02:14:28;6.27;;;3.00;;
60873;SDS011;46715;40.642;-7.920;2022-12-05T02:19:23;4.60;;;2.97;;
60873;SDS011;46715;40.642;-7.920;2022-12-05T02:23:33;4.00;;;2.20;;
60873;SDS011;46715;40.642;-7.920;2022-12-05T02:28:00;4.13;;;2.53;;
60873;SDS011;46715;40.642;-7.920;2022-12-05T02:32:45;6.20;;;2.60;;
60873;SDS011;46715;40.642;-7.920;2022-12-05T02:37:01;10.40;;;3.03;;
60873;SDS011;46715;40.642;-7.920;2022-12-05T02:39:11;4.90;;;2.42;;
60873;SDS011;46715;40.642;-7.920;2022-12-05T02:41:27;5.47;;;2.65;;
60873;SDS011;46715;40.642;-7.920;2022-12-05T02:43:39;4.35;;;2.47;;
60873;SDS011;46715;40.642;-7.920;2022-12-05T02:45:43;5.13;;;2.53;;
60873;SDS011;46715;40.642;-7.920;2022-12-05T02:47:50;4.20;;;2.55;;
60873;SDS011;46715;40.642;-7.920;2022-12-05T02:49:52;3.92;;;2.45;;
60873;SDS011;46715;40.642;-7.920;2022-12-05T02:51:56;3.75;;;2.40;;
60873;SDS011;46715;40.642;-7.920;2022-12-05T02:54:00;4.75;;;2.47;;
60873;SDS011;46715;40.642;-7.920;2022-12-05T02:56:07;3.88;;;2.15;;
60873;SDS011;46715;40.642;-7.920;2022-12-05T02:58:12;5.25;;;2.72;;
60873;SDS011;46715;40.642;-7.920;2022-12-05T03:00:17;7.93;;;2.28;;
60873;SDS011;46715;40.642;-7.920;2022-12-05T03:02:21;3.22;;;2.22;;
60873;SDS011;46715;40.642;-7.920;2022-12-05T03:04:32;4.35;;;2.13;;
60873;SDS011;46715;40.642;-7.920;2022-12-05T03:06:33;5.83;;;2.10;;
60873;SDS011;46715;40.642;-7.920;2022-12-05T03:08:43;2.90;;;2.08;;
60873;SDS011;46715;40.642;-7.920;2022-12-05T03:10:54;4.25;;;2.58;;
60873;SDS011;46715;40.642;-7.920;2022-12-05T03:12:59;4.80;;;2.42;;
60873;SDS011;46715;40.642;-7.920;2022-12-05T03:15:11;3.22;;;2.30;;
60873;SDS011;46715;40.642;-7.920;2022-12-05T03:17:18;3.85;;;2.45;;
60873;SDS011;46715;40.642;-7.920;2022-12-05T03:19:27;3.60;;;2.10;;
60873;SDS011;46715;40.642;-7.920;2022-12-05T03:21:51;4.65;;;2.22;;
60873;SDS011;46715;40.642;-7.920;2022-12-05T03:24:04;3.38;;;2.20;;
60873;SDS011;46715;40.642;-7.920;2022-12-05T03:26:15;4.93;;;2.58;;
60873;SDS011;46715;40.642;-7.920;2022-12-05T03:28:30;3.55;;;2.20;;
60873;SDS011;46715;40.642;-7.920;2022-12-05T03:30:44;3.38;;;1.90;;
60873;SDS011;46715;40.642;-7.920;2022-12-05T03:35:35;3.45;;;2.15;;
60873;SDS011;46715;40.642;-7.920;2022-12-05T03:39:47;3.15;;;2.00;;
60873;SDS011;46715;40.642;-7.920;2022-12-05T03:42:08;3.75;;;2.15;;
60873;SDS011;46715;40.642;-7.920;2022-12-05T03:48:56;4.00;;;2.22;;
60873;SDS011;46715;40.642;-7.920;2022-12-05T03:51:05;3.28;;;1.80;;
60873;SDS011;46715;40.642;-7.920;2022-12-05T03:53:11;3.72;;;2.35;;
60873;SDS011;46715;40.642;-7.920;2022-12-05T03:55:17;4.18;;;2.17;;
60873;SDS011;46715;40.642;-7.920;2022-12-05T03:57:26;4.40;;;2.60;;
60873;SDS011;46715;40.642;-7.920;2022-12-05T03:59:36;3.00;;;2.20;;
60873;SDS011;46715;40.642;-7.920;2022-12-05T04:01:43;5.13;;;2.38;;
60873;SDS011;46715;40.642;-7.920;2022-12-05T04:03:49;3.80;;;2.20;;
60873;SDS011;46715;40.642;-7.920;2022-12-05T04:05:58;3.70;;;2.45;;
60873;SDS011;46715;40.642;-7.920;2022-12-05T04:08:05;5.55;;;2.50;;
60873;SDS011;46715;40.642;-7.920;2022-12-05T04:10:11;3.42;;;2.30;;
60873;SDS011;46715;40.642;-7.920;2022-12-05T04:12:24;3.67;;;2.33;;
60873;SDS011;46715;40.642;-7.920;2022-12-05T04:14:29;3.35;;;2.05;;
60873;SDS011;46715;40.642;-7.920;2022-12-05T04:16:46;2.75;;;2.30;;
60873;SDS011;46715;40.642;-7.920;2022-12-05T04:19:14;3.97;;;2.45;;
60873;SDS011;46715;40.642;-7.920;2022-12-05T04:21:20;3.88;;;2.50;;
60873;SDS011;46715;40.642;-7.920;2022-12-05T04:23:40;3.90;;;2.33;;
60873;SDS011;46715;40.642;-7.920;2022-12-05T04:26:01;3.67;;;2.23;;
60873;SDS011;46715;40.642;-7.920;2022-12-05T04:28:18;4.15;;;2.22;;
60873;SDS011;46715;40.642;-7.920;2022-12-05T04:30:42;4.20;;;2.38;;
60873;SDS011;46715;40.642;-7.920;2022-12-05T04:35:21;6.30;;;2.50;;
60873;SDS011;46715;40.642;-7.920;2022-12-05T04:37:30;3.63;;;2.33;;
60873;SDS011;46715;40.642;-7.920;2022-12-05T04:39:36;4.75;;;2.40;;
60873;SDS011;46715;40.642;-7.920;2022-12-05T04:41:53;3.40;;;2.53;;
60873;SDS011;46715;40.642;-7.920;2022-12-05T04:44:02;2.97;;;2.20;;
60873;SDS011;46715;40.642;-7.920;2022-12-05T04:46:09;2.63;;;2.13;;
60873;SDS011;46715;40.642;-7.920;2022-12-05T04:48:13;7.47;;;2.97;;
60873;SDS011;46715;40.642;-7.920;2022-12-05T04:50:16;3.83;;;2.47;;
60873;SDS011;46715;40.642;-7.920;2022-12-05T04:52:20;4.32;;;2.40;;
60873;SDS011;46715;40.642;-7.920;2022-12-05T04:56:32;3.30;;;2.30;;
60873;SDS011;46715;40.642;-7.920;2022-12-05T04:58:36;3.08;;;2.40;;
60873;SDS011;46715;40.642;-7.920;2022-12-05T05:00:40;10.23;;;3.05;;
60873;SDS011;46715;40.642;-7.920;2022-12-05T05:03:05;4.05;;;2.30;;
60873;SDS011;46715;40.642;-7.920;2022-12-05T05:05:14;4.53;;;2.70;;
60873;SDS011;46715;40.642;-7.920;2022-12-05T05:07:17;4.25;;;2.38;;
60873;SDS011;46715;40.642;-7.920;2022-12-05T05:09:20;3.42;;;2.20;;
60873;SDS011;46715;40.642;-7.920;2022-12-05T05:11:22;3.33;;;2.77;;
60873;SDS011;46715;40.642;-7.920;2022-12-05T05:13:25;5.38;;;2.20;;
60873;SDS011;46715;40.642;-7.920;2022-12-05T05:15:27;2.95;;;2.22;;
60873;SDS011;46715;40.642;-7.920;2022-12-05T05:17:28;3.70;;;2.30;;
60873;SDS011;46715;40.642;-7.920;2022-12-05T05:19:29;2.57;;;2.03;;
60873;SDS011;46715;40.642;-7.920;2022-12-05T05:21:35;2.85;;;2.08;;
60873;SDS011;46715;40.642;-7.920;2022-12-05T05:23:40;5.28;;;1.85;;
60873;SDS011;46715;40.642;-7.920;2022-12-05T05:25:41;3.03;;;1.70;;
60873;SDS011;46715;40.642;-7.920;2022-12-05T05:27:41;3.27;;;2.43;;
60873;SDS011;46715;40.642;-7.920;2022-12-05T05:29:43;4.28;;;2.45;;
60873;SDS011;46715;40.642;-7.920;2022-12-05T05:31:44;4.83;;;2.13;;
60873;SDS011;46715;40.642;-7.920;2022-12-05T05:33:50;4.85;;;2.63;;
60873;SDS011;46715;40.642;-7.920;2022-12-05T05:35:53;3.22;;;2.30;;
60873;SDS011;46715;40.642;-7.920;2022-12-05T05:37:54;3.15;;;2.38;;
60873;SDS011;46715;40.642;-7.920;2022-12-05T05:39:55;3.73;;;2.27;;
60873;SDS011;46715;40.642;-7.920;2022-12-05T05:41:56;4.03;;;1.93;;
60873;SDS011;46715;40.642;-7.920;2022-12-05T05:43:57;2.93;;;2.13;;
60873;SDS011;46715;40.642;-7.920;2022-12-05T05:45:58;4.55;;;2.47;;
60873;SDS011;46715;40.642;-7.920;2022-12-05T05:48:04;4.15;;;2.00;;
60873;SDS011;46715;40.642;-7.920;2022-12-05T05:50:07;4.60;;;2.10;;
60873;SDS011;46715;40.642;-7.920;2022-12-05T05:52:08;4.18;;;2.20;;
60873;SDS011;46715;40.642;-7.920;2022-12-05T05:54:09;3.20;;;2.33;;
60873;SDS011;46715;40.642;-7.920;2022-12-05T05:56:11;5.47;;;2.47;;
60873;SDS011;46715;40.642;-7.920;2022-12-05T05:58:17;3.33;;;2.22;;
60873;SDS011;46715;40.642;-7.920;2022-12-05T06:00:19;2.83;;;1.98;;
60873;SDS011;46715;40.642;-7.920;2022-12-05T06:02:22;5.78;;;2.60;;
60873;SDS011;46715;40.642;-7.920;2022-12-05T06:04:23;3.80;;;1.87;;
60873;SDS011;46715;40.642;-7.920;2022-12-05T06:06:23;3.57;;;2.67;;
60873;SDS011;46715;40.642;-7.920;2022-12-05T06:08:24;3.43;;;2.27;;
60873;SDS011;46715;40.642;-7.920;2022-12-05T06:10:26;3.03;;;2.58;;
60873;SDS011;46715;40.642;-7.920;2022-12-05T06:12:29;3.63;;;2.45;;
60873;SDS011;46715;40.642;-7.920;2022-12-05T06:14:30;5.17;;;2.73;;
60873;SDS011;46715;40.642;-7.920;2022-12-05T06:16:31;3.13;;;2.43;;
60873;SDS011;46715;40.642;-7.920;2022-12-05T06:18:32;3.37;;;2.40;;
60873;SDS011;46715;40.642;-7.920;2022-12-05T06:20:33;3.25;;;2.30;;
60873;SDS011;46715;40.642;-7.920;2022-12-05T06:24:36;3.33;;;2.67;;
60873;SDS011;46715;40.642;-7.920;2022-12-05T06:28:38;3.20;;;2.22;;
60873;SDS011;46715;40.642;-7.920;2022-12-05T06:30:39;2.70;;;2.20;;
60873;SDS011;46715;40.642;-7.920;2022-12-05T06:32:40;5.37;;;2.87;;
60873;SDS011;46715;40.642;-7.920;2022-12-05T06:34:40;4.87;;;3.07;;
60873;SDS011;46715;40.642;-7.920;2022-12-05T06:36:41;4.27;;;3.00;;
60873;SDS011;46715;40.642;-7.920;2022-12-05T06:38:42;3.00;;;2.20;;
60873;SDS011;46715;40.642;-7.920;2022-12-05T06:40:43;3.77;;;2.33;;
60873;SDS011;46715;40.642;-7.920;2022-12-05T06:42:44;4.65;;;2.50;;
60873;SDS011;46715;40.642;-7.920;2022-12-05T06:44:45;3.50;;;2.50;;
60873;SDS011;46715;40.642;-7.920;2022-12-05T06:46:46;3.50;;;2.43;;
60873;SDS011;46715;40.642;-7.920;2022-12-05T06:48:47;3.85;;;2.38;;
60873;SDS011;46715;40.642;-7.920;2022-12-05T06:50:49;4.47;;;2.67;;
60873;SDS011;46715;40.642;-7.920;2022-12-05T06:52:51;4.95;;;2.67;;
60873;SDS011;46715;40.642;-7.920;2022-12-05T06:54:52;4.03;;;2.30;;
60873;SDS011;46715;40.642;-7.920;2022-12-05T06:56:53;4.90;;;2.13;;
60873;SDS011;46715;40.642;-7.920;2022-12-05T06:58:53;4.33;;;2.33;;
60873;SDS011;46715;40.642;-7.920;2022-12-05T07:00:55;3.28;;;2.50;;
60873;SDS011;46715;40.642;-7.920;2022-12-05T07:03:15;8.00;;;2.58;;
60873;SDS011;46715;40.642;-7.920;2022-12-05T07:05:15;3.30;;;2.50;;
60873;SDS011;46715;40.642;-7.920;2022-12-05T07:07:16;4.53;;;2.60;;
60873;SDS011;46715;40.642;-7.920;2022-12-05T07:09:18;6.73;;;2.50;;
60873;SDS011;46715;40.642;-7.920;2022-12-05T07:11:21;3.42;;;2.50;;
60873;SDS011;46715;40.642;-7.920;2022-12-05T07:13:22;4.43;;;2.47;;
60873;SDS011;46715;40.642;-7.920;2022-12-05T07:15:23;3.35;;;2.50;;
60873;SDS011;46715;40.642;-7.920;2022-12-05T07:17:24;4.67;;;3.07;;
60873;SDS011;46715;40.642;-7.920;2022-12-05T07:19:25;4.47;;;2.53;;
60873;SDS011;46715;40.642;-7.920;2022-12-05T07:21:26;3.17;;;2.83;;
60873;SDS011;46715;40.642;-7.920;2022-12-05T07:23:27;4.63;;;2.90;;
60873;SDS011;46715;40.642;-7.920;2022-12-05T07:25:28;4.13;;;2.43;;
60873;SDS011;46715;40.642;-7.920;2022-12-05T07:27:29;5.00;;;3.27;;
60873;SDS011;46715;40.642;-7.920;2022-12-05T07:29:29;3.47;;;2.33;;
60873;SDS011;46715;40.642;-7.920;2022-12-05T07:31:33;3.58;;;2.72;;
60873;SDS011;46715;40.642;-7.920;2022-12-05T07:33:35;3.42;;;2.40;;
60873;SDS011;46715;40.642;-7.920;2022-12-05T07:35:40;2.72;;;2.40;;
60873;SDS011;46715;40.642;-7.920;2022-12-05T07:37:40;2.90;;;2.40;;
60873;SDS011;46715;40.642;-7.920;2022-12-05T07:41:43;3.38;;;2.30;;
60873;SDS011;46715;40.642;-7.920;2022-12-05T07:43:49;4.22;;;2.60;;
60873;SDS011;46715;40.642;-7.920;2022-12-05T07:45:51;4.20;;;2.20;;
60873;SDS011;46715;40.642;-7.920;2022-12-05T07:47:52;3.70;;;2.60;;
60873;SDS011;46715;40.642;-7.920;2022-12-05T07:49:53;4.00;;;2.83;;
60873;SDS011;46715;40.642;-7.920;2022-12-05T07:51:53;4.07;;;2.70;;
60873;SDS011;46715;40.642;-7.920;2022-12-05T07:53:54;4.60;;;2.40;;
60873;SDS011;46715;40.642;-7.920;2022-12-05T07:55:58;3.95;;;2.65;;
60873;SDS011;46715;40.642;-7.920;2022-12-05T07:57:59;4.53;;;2.90;;
60873;SDS011;46715;40.642;-7.920;2022-12-05T08:00:01;4.22;;;2.88;;
60873;SDS011;46715;40.642;-7.920;2022-12-05T08:02:12;3.47;;;2.30;;
60873;SDS011;46715;40.642;-7.920;2022-12-05T08:04:13;3.30;;;2.53;;
60873;SDS011;46715;40.642;-7.920;2022-12-05T08:06:18;4.43;;;3.60;;
60873;SDS011;46715;40.642;-7.920;2022-12-05T08:08:20;4.78;;;2.42;;
60873;SDS011;46715;40.642;-7.920;2022-12-05T08:10:21;4.23;;;2.97;;
60873;SDS011;46715;40.642;-7.920;2022-12-05T08:12:22;5.07;;;2.63;;
60873;SDS011;46715;40.642;-7.920;2022-12-05T08:14:23;4.43;;;2.43;;
60873;SDS011;46715;40.642;-7.920;2022-12-05T08:16:26;3.60;;;2.75;;
60873;SDS011;46715;40.642;-7.920;2022-12-05T08:18:31;4.07;;;2.53;;
60873;SDS011;46715;40.642;-7.920;2022-12-05T08:20:45;3.53;;;2.72;;
60873;SDS011;46715;40.642;-7.920;2022-12-05T08:22:54;3.03;;;2.47;;
60873;SDS011;46715;40.642;-7.920;2022-12-05T08:24:58;3.63;;;3.10;;
60873;SDS011;46715;40.642;-7.920;2022-12-05T08:29:53;4.43;;;2.80;;
60873;SDS011;46715;40.642;-7.920;2022-12-05T08:32:19;2.92;;;2.42;;
60873;SDS011;46715;40.642;-7.920;2022-12-05T08:34:20;3.83;;;2.33;;
60873;SDS011;46715;40.642;-7.920;2022-12-05T08:36:22;5.32;;;3.50;;
60873;SDS011;46715;40.642;-7.920;2022-12-05T08:38:23;3.67;;;2.40;;
60873;SDS011;46715;40.642;-7.920;2022-12-05T08:40:29;3.60;;;2.40;;
60873;SDS011;46715;40.642;-7.920;2022-12-05T08:42:33;4.45;;;2.20;;
60873;SDS011;46715;40.642;-7.920;2022-12-05T08:44:34;5.30;;;2.73;;
60873;SDS011;46715;40.642;-7.920;2022-12-05T08:46:36;4.97;;;2.33;;
60873;SDS011;46715;40.642;-7.920;2022-12-05T08:48:38;2.35;;;1.85;;
60873;SDS011;46715;40.642;-7.920;2022-12-05T08:50:39;5.25;;;2.10;;
60873;SDS011;46715;40.642;-7.920;2022-12-05T08:52:39;3.93;;;2.23;;
60873;SDS011;46715;40.642;-7.920;2022-12-05T08:59:24;3.50;;;1.70;;
60873;SDS011;46715;40.642;-7.920;2022-12-05T09:01:39;4.05;;;2.20;;
60873;SDS011;46715;40.642;-7.920;2022-12-05T09:03:49;2.47;;;1.70;;
60873;SDS011;46715;40.642;-7.920;2022-12-05T09:08:16;3.67;;;1.67;;
60873;SDS011;46715;40.642;-7.920;2022-12-05T09:10:17;2.30;;;1.90;;
60873;SDS011;46715;40.642;-7.920;2022-12-05T09:12:18;1.90;;;1.70;;
60873;SDS011;46715;40.642;-7.920;2022-12-05T09:14:20;2.30;;;1.75;;
60873;SDS011;46715;40.642;-7.920;2022-12-05T09:16:22;3.10;;;1.73;;
60873;SDS011;46715;40.642;-7.920;2022-12-05T09:18:25;2.83;;;2.38;;
60873;SDS011;46715;40.642;-7.920;2022-12-05T09:20:26;2.33;;;1.50;;
60873;SDS011;46715;40.642;-7.920;2022-12-05T09:22:27;2.50;;;1.50;;
60873;SDS011;46715;40.642;-7.920;2022-12-05T09:24:28;4.03;;;1.70;;
60873;SDS011;46715;40.642;-7.920;2022-12-05T09:26:29;2.38;;;1.50;;
60873;SDS011;46715;40.642;-7.920;2022-12-05T09:28:31;2.50;;;1.50;;
60873;SDS011;46715;40.642;-7.920;2022-12-05T09:30:39;3.40;;;1.60;;
60873;SDS011;46715;40.642;-7.920;2022-12-05T09:32:43;3.53;;;1.60;;
60873;SDS011;46715;40.642;-7.920;2022-12-05T09:34:43;2.30;;;1.67;;
60873;SDS011;46715;40.642;-7.920;2022-12-05T09:36:45;2.17;;;1.73;;
60873;SDS011;46715;40.642;-7.920;2022-12-05T09:38:51;3.80;;;2.47;;
60873;SDS011;46715;40.642;-7.920;2022-12-05T09:40:56;3.25;;;1.60;;
60873;SDS011;46715;40.642;-7.920;2022-12-05T09:43:15;2.67;;;1.50;;
60873;SDS011;46715;40.642;-7.920;2022-12-05T09:45:36;1.67;;;1.27;;
60873;SDS011;46715;40.642;-7.920;2022-12-05T09:52:22;2.08;;;1.30;;
60873;SDS011;46715;40.642;-7.920;2022-12-05T09:54:37;2.42;;;1.80;;
60873;SDS011;46715;40.642;-7.920;2022-12-05T09:56:38;3.50;;;1.50;;
60873;SDS011;46715;40.642;-7.920;2022-12-05T09:58:47;3.03;;;1.50;;
60873;SDS011;46715;40.642;-7.920;2022-12-05T10:00:52;2.72;;;1.65;;
60873;SDS011;46715;40.642;-7.920;2022-12-05T10:03:36;1.95;;;1.60;;
60873;SDS011;46715;40.642;-7.920;2022-12-05T10:05:46;3.88;;;1.73;;
60873;SDS011;46715;40.642;-7.920;2022-12-05T10:12:44;5.45;;;1.33;;
60873;SDS011;46715;40.642;-7.920;2022-12-05T10:17:34;1.50;;;1.40;;
60873;SDS011;46715;40.642;-7.920;2022-12-05T10:19:38;2.00;;;1.48;;
60873;SDS011;46715;40.642;-7.920;2022-12-05T10:21:49;3.22;;;1.80;;
60873;SDS011;46715;40.642;-7.920;2022-12-05T10:26:01;1.52;;;1.35;;
60873;SDS011;46715;40.642;-7.920;2022-12-05T10:28:14;2.13;;;1.52;;
60873;SDS011;46715;40.642;-7.920;2022-12-05T10:30:28;4.50;;;2.00;;
60873;SDS011;46715;40.642;-7.920;2022-12-05T10:32:36;2.20;;;1.52;;
60873;SDS011;46715;40.642;-7.920;2022-12-05T10:37:17;3.53;;;1.90;;
60873;SDS011;46715;40.642;-7.920;2022-12-05T10:39:21;2.10;;;1.77;;
60873;SDS011;46715;40.642;-7.920;2022-12-05T10:41:23;2.63;;;2.10;;
60873;SDS011;46715;40.642;-7.920;2022-12-05T10:43:25;3.15;;;2.47;;
60873;SDS011;46715;40.642;-7.920;2022-12-05T10:45:28;2.63;;;1.42;;
60873;SDS011;46715;40.642;-7.920;2022-12-05T10:49:31;3.38;;;1.90;;
60873;SDS011;46715;40.642;-7.920;2022-12-05T10:51:34;3.75;;;2.20;;
60873;SDS011;46715;40.642;-7.920;2022-12-05T10:53:38;3.27;;;1.80;;
60873;SDS011;46715;40.642;-7.920;2022-12-05T10:55:42;2.75;;;1.80;;
60873;SDS011;46715;40.642;-7.920;2022-12-05T10:57:50;4.13;;;2.10;;
60873;SDS011;46715;40.642;-7.920;2022-12-05T11:00:09;2.65;;;2.03;;
60873;SDS011;46715;40.642;-7.920;2022-12-05T11:02:31;3.10;;;2.00;;
60873;SDS011;46715;40.642;-7.920;2022-12-05T11:04:41;4.30;;;2.20;;
60873;SDS011;46715;40.642;-7.920;2022-12-05T11:06:50;3.40;;;2.15;;
60873;SDS011;46715;40.642;-7.920;2022-12-05T11:09:12;3.08;;;2.28;;
60873;SDS011;46715;40.642;-7.920;2022-12-05T11:13:24;4.43;;;2.35;;
60873;SDS011;46715;40.642;-7.920;2022-12-05T11:15:28;3.25;;;2.42;;
60873;SDS011;46715;40.642;-7.920;2022-12-05T11:17:35;2.40;;;1.90;;
60873;SDS011;46715;40.642;-7.920;2022-12-05T11:19:37;4.38;;;2.28;;
60873;SDS011;46715;40.642;-7.920;2022-12-05T11:21:42;3.25;;;1.90;;
60873;SDS011;46715;40.642;-7.920;2022-12-05T11:23:43;3.35;;;2.20;;
60873;SDS011;46715;40.642;-7.920;2022-12-05T11:25:45;2.08;;;1.75;;
60873;SDS011;46715;40.642;-7.920;2022-12-05T11:27:56;3.75;;;1.85;;
60873;SDS011;46715;40.642;-7.920;2022-12-05T11:30:13;2.40;;;1.83;;
60873;SDS011;46715;40.642;-7.920;2022-12-05T11:32:25;3.50;;;2.20;;
60873;SDS011;46715;40.642;-7.920;2022-12-05T11:34:30;2.58;;;2.20;;
60873;SDS011;46715;40.642;-7.920;2022-12-05T11:36:41;4.22;;;2.67;;
60873;SDS011;46715;40.642;-7.920;2022-12-05T11:38:46;4.15;;;2.75;;
60873;SDS011;46715;40.642;-7.920;2022-12-05T11:52:42;5.45;;;2.70;;
60873;SDS011;46715;40.642;-7.920;2022-12-05T12:06:22;3.15;;;2.53;;
60873;SDS011;46715;40.642;-7.920;2022-12-05T12:15:44;3.42;;;2.40;;
60873;SDS011;46715;40.642;-7.920;2022-12-05T12:17:52;2.75;;;2.00;;
60873;SDS011;46715;40.642;-7.920;2022-12-05T12:27:04;3.80;;;2.63;;
60873;SDS011;46715;40.642;-7.920;2022-12-05T12:31:54;4.60;;;3.42;;
60873;SDS011;46715;40.642;-7.920;2022-12-05T12:34:34;3.40;;;2.50;;
60873;SDS011;46715;40.642;-7.920;2022-12-05T12:36:49;3.75;;;2.75;;
60873;SDS011;46715;40.642;-7.920;2022-12-05T12:39:13;3.70;;;2.95;;
60873;SDS011;46715;40.642;-7.920;2022-12-05T12:50:53;2.95;;;2.05;;
60873;SDS011;46715;40.642;-7.920;2022-12-05T12:55:17;3.42;;;2.30;;
60873;SDS011;46715;40.642;-7.920;2022-12-05T12:59:52;3.25;;;2.65;;
60873;SDS011;46715;40.642;-7.920;2022-12-05T13:04:43;2.45;;;2.00;;
60873;SDS011;46715;40.642;-7.920;2022-12-05T13:07:00;3.17;;;2.33;;
60873;SDS011;46715;40.642;-7.920;2022-12-05T13:11:28;3.45;;;2.45;;
60873;SDS011;46715;40.642;-7.920;2022-12-05T13:13:34;3.00;;;2.50;;
60873;SDS011;46715;40.642;-7.920;2022-12-05T13:15:57;3.33;;;2.65;;
60873;SDS011;46715;40.642;-7.920;2022-12-05T13:18:01;4.00;;;2.45;;
60873;SDS011;46715;40.642;-7.920;2022-12-05T13:20:05;3.28;;;2.67;;
60873;SDS011;46715;40.642;-7.920;2022-12-05T13:22:13;4.25;;;2.78;;
60873;SDS011;46715;40.642;-7.920;2022-12-05T13:24:18;2.55;;;2.30;;
60873;SDS011;46715;40.642;-7.920;2022-12-05T13:26:26;3.85;;;2.88;;
60873;SDS011;46715;40.642;-7.920;2022-12-05T13:28:28;4.53;;;3.72;;
60873;SDS011;46715;40.642;-7.920;2022-12-05T13:30:47;3.35;;;2.63;;
60873;SDS011;46715;40.642;-7.920;2022-12-05T13:33:07;2.83;;;2.00;;
60873;SDS011;46715;40.642;-7.920;2022-12-05T13:35:19;2.78;;;2.28;;
60873;SDS011;46715;40.642;-7.920;2022-12-05T13:37:47;4.35;;;2.40;;
60873;SDS011;46715;40.642;-7.920;2022-12-05T13:40:30;3.72;;;2.55;;
60873;SDS011;46715;40.642;-7.920;2022-12-05T13:42:48;3.17;;;2.20;;
60873;SDS011;46715;40.642;-7.920;2022-12-05T13:47:04;3.35;;;2.35;;
60873;SDS011;46715;40.642;-7.920;2022-12-05T13:49:13;3.88;;;2.90;;
60873;SDS011;46715;40.642;-7.920;2022-12-05T13:51:23;3.58;;;2.80;;
60873;SDS011;46715;40.642;-7.920;2022-12-05T13:53:47;3.35;;;2.38;;
60873;SDS011;46715;40.642;-7.920;2022-12-05T14:00:21;4.03;;;2.30;;
60873;SDS011;46715;40.642;-7.920;2022-12-05T14:04:46;3.88;;;2.72;;
60873;SDS011;46715;40.642;-7.920;2022-12-05T14:08:51;3.97;;;2.80;;
60873;SDS011;46715;40.642;-7.920;2022-12-05T14:12:55;5.13;;;2.70;;
60873;SDS011;46715;40.642;-7.920;2022-12-05T14:16:56;3.27;;;2.20;;
60873;SDS011;46715;40.642;-7.920;2022-12-05T14:23:19;4.00;;;2.10;;
60873;SDS011;46715;40.642;-7.920;2022-12-05T14:25:37;3.08;;;2.08;;
60873;SDS011;46715;40.642;-7.920;2022-12-05T14:27:53;4.65;;;2.70;;
60873;SDS011;46715;40.642;-7.920;2022-12-05T14:30:08;2.95;;;2.10;;
60873;SDS011;46715;40.642;-7.920;2022-12-05T14:32:30;3.67;;;2.55;;
60873;SDS011;46715;40.642;-7.920;2022-12-05T14:41:55;5.82;;;3.58;;
60873;SDS011;46715;40.642;-7.920;2022-12-05T14:44:10;3.00;;;2.70;;
60873;SDS011;46715;40.642;-7.920;2022-12-05T14:46:26;3.88;;;2.60;;
60873;SDS011;46715;40.642;-7.920;2022-12-05T14:48:33;6.57;;;3.00;;
60873;SDS011;46715;40.642;-7.920;2022-12-05T14:53:36;4.25;;;2.97;;
60873;SDS011;46715;40.642;-7.920;2022-12-05T14:55:20;4.80;;;2.78;;
60873;SDS011;46715;40.642;-7.920;2022-12-05T14:57:23;4.07;;;2.97;;
60873;SDS011;46715;40.642;-7.920;2022-12-05T14:59:28;5.55;;;2.65;;
60873;SDS011;46715;40.642;-7.920;2022-12-05T15:01:46;3.53;;;2.95;;
60873;SDS011;46715;40.642;-7.920;2022-12-05T15:04:01;3.95;;;2.80;;